sensor_id;sensor_type;location;lat;lon;timestamp;P1;durP1;ratioP1;P2;durP2;ratioP2
2772;SDS011;1394;47.044;15.744;2022-09-27T00:00:57;32.27;;;2.27;;
2772;SDS011;1394;47.044;15.744;2022-09-27T00:03:25;32.30;;;2.43;;
2772;SDS011;1394;47.044;15.744;2022-09-27T00:06:01;32.53;;;2.60;;
2772;SDS011;1394;47.044;15.744;2022-09-27T00:08:29;32.07;;;2.20;;
2772;SDS011;1394;47.044;15.744;2022-09-27T00:10:58;32.70;;;2.57;;
2772;SDS011;1394;47.044;15.744;2022-09-27T00:13:26;32.33;;;2.30;;
2772;SDS011;1394;47.044;15.744;2022-09-27T00:15:56;33.23;;;2.53;;
2772;SDS011;1394;47.044;15.744;2022-09-27T00:18:25;32.37;;;2.50;;
2772;SDS011;1394;47.044;15.744;2022-09-27T00:20:52;32.70;;;2.57;;
2772;SDS011;1394;47.044;15.744;2022-09-27T00:23:21;32.60;;;2.90;;
2772;SDS011;1394;47.044;15.744;2022-09-27T00:25:55;32.07;;;2.00;;
2772;SDS011;1394;47.044;15.744;2022-09-27T00:28:23;32.30;;;2.30;;
2772;SDS011;1394;47.044;15.744;2022-09-27T00:30:51;32.43;;;2.40;;
2772;SDS011;1394;47.044;15.744;2022-09-27T00:33:18;32.50;;;2.20;;
2772;SDS011;1394;47.044;15.744;2022-09-27T00:35:45;32.80;;;2.50;;
2772;SDS011;1394;47.044;15.744;2022-09-27T00:38:13;32.60;;;2.27;;
2772;SDS011;1394;47.044;15.744;2022-09-27T00:40:42;32.67;;;2.33;;
2772;SDS011;1394;47.044;15.744;2022-09-27T00:43:14;32.17;;;2.17;;
2772;SDS011;1394;47.044;15.744;2022-09-27T00:45:42;32.33;;;2.87;;
2772;SDS011;1394;47.044;15.744;2022-09-27T00:48:10;32.97;;;3.30;;
2772;SDS011;1394;47.044;15.744;2022-09-27T00:50:40;32.83;;;2.70;;
2772;SDS011;1394;47.044;15.744;2022-09-27T00:53:10;32.60;;;2.60;;
2772;SDS011;1394;47.044;15.744;2022-09-27T00:55:39;32.83;;;2.53;;
2772;SDS011;1394;47.044;15.744;2022-09-27T00:58:09;32.70;;;2.80;;
2772;SDS011;1394;47.044;15.744;2022-09-27T01:00:39;32.77;;;2.90;;
2772;SDS011;1394;47.044;15.744;2022-09-27T01:03:09;33.03;;;2.70;;
2772;SDS011;1394;47.044;15.744;2022-09-27T01:05:40;32.50;;;2.40;;
2772;SDS011;1394;47.044;15.744;2022-09-27T01:08:07;32.80;;;2.80;;
2772;SDS011;1394;47.044;15.744;2022-09-27T01:10:35;32.30;;;2.40;;
2772;SDS011;1394;47.044;15.744;2022-09-27T01:13:06;32.50;;;2.50;;
2772;SDS011;1394;47.044;15.744;2022-09-27T01:15:41;32.30;;;2.37;;
2772;SDS011;1394;47.044;15.744;2022-09-27T01:18:21;32.57;;;2.80;;
2772;SDS011;1394;47.044;15.744;2022-09-27T01:20:54;32.60;;;2.80;;
2772;SDS011;1394;47.044;15.744;2022-09-27T01:23:36;32.50;;;2.70;;
2772;SDS011;1394;47.044;15.744;2022-09-27T01:26:11;32.50;;;2.77;;
2772;SDS011;1394;47.044;15.744;2022-09-27T01:28:47;32.33;;;2.60;;
2772;SDS011;1394;47.044;15.744;2022-09-27T01:31:18;32.50;;;2.60;;
2772;SDS011;1394;47.044;15.744;2022-09-27T01:33:48;32.80;;;3.10;;
2772;SDS011;1394;47.044;15.744;2022-09-27T01:36:20;32.70;;;2.70;;
2772;SDS011;1394;47.044;15.744;2022-09-27T01:38:56;32.50;;;2.73;;
2772;SDS011;1394;47.044;15.744;2022-09-27T01:41:31;32.73;;;2.77;;
2772;SDS011;1394;47.044;15.744;2022-09-27T01:44:01;32.80;;;3.10;;
2772;SDS011;1394;47.044;15.744;2022-09-27T01:46:34;32.67;;;2.70;;
2772;SDS011;1394;47.044;15.744;2022-09-27T01:49:04;32.53;;;3.00;;
2772;SDS011;1394;47.044;15.744;2022-09-27T01:51:40;32.67;;;3.20;;
2772;SDS011;1394;47.044;15.744;2022-09-27T01:54:11;33.27;;;3.17;;
2772;SDS011;1394;47.044;15.744;2022-09-27T01:56:40;32.77;;;2.90;;
2772;SDS011;1394;47.044;15.744;2022-09-27T01:59:08;32.80;;;2.90;;
2772;SDS011;1394;47.044;15.744;2022-09-27T02:01:38;33.10;;;3.80;;
2772;SDS011;1394;47.044;15.744;2022-09-27T02:04:09;32.87;;;2.93;;
2772;SDS011;1394;47.044;15.744;2022-09-27T02:06:38;32.50;;;2.80;;
2772;SDS011;1394;47.044;15.744;2022-09-27T02:09:07;32.60;;;2.80;;
2772;SDS011;1394;47.044;15.744;2022-09-27T02:11:36;32.60;;;2.93;;
2772;SDS011;1394;47.044;15.744;2022-09-27T02:14:06;32.87;;;3.30;;
2772;SDS011;1394;47.044;15.744;2022-09-27T02:16:38;33.30;;;3.00;;
2772;SDS011;1394;47.044;15.744;2022-09-27T02:19:13;32.80;;;3.27;;
2772;SDS011;1394;47.044;15.744;2022-09-27T02:21:49;33.40;;;2.90;;
2772;SDS011;1394;47.044;15.744;2022-09-27T02:24:20;33.10;;;3.53;;
2772;SDS011;1394;47.044;15.744;2022-09-27T02:26:50;32.33;;;2.70;;
2772;SDS011;1394;47.044;15.744;2022-09-27T02:29:22;33.47;;;4.37;;
2772;SDS011;1394;47.044;15.744;2022-09-27T02:31:50;32.60;;;2.90;;
2772;SDS011;1394;47.044;15.744;2022-09-27T02:34:20;33.33;;;3.57;;
2772;SDS011;1394;47.044;15.744;2022-09-27T02:36:48;32.70;;;3.10;;
2772;SDS011;1394;47.044;15.744;2022-09-27T02:39:17;33.43;;;3.77;;
2772;SDS011;1394;47.044;15.744;2022-09-27T02:41:45;32.60;;;2.87;;
2772;SDS011;1394;47.044;15.744;2022-09-27T02:44:13;33.10;;;3.10;;
2772;SDS011;1394;47.044;15.744;2022-09-27T02:46:45;33.20;;;3.27;;
2772;SDS011;1394;47.044;15.744;2022-09-27T02:49:19;33.10;;;3.10;;
2772;SDS011;1394;47.044;15.744;2022-09-27T02:51:50;33.53;;;3.17;;
2772;SDS011;1394;47.044;15.744;2022-09-27T02:54:23;32.50;;;3.00;;
2772;SDS011;1394;47.044;15.744;2022-09-27T02:56:55;32.93;;;3.30;;
2772;SDS011;1394;47.044;15.744;2022-09-27T02:59:29;32.80;;;3.37;;
2772;SDS011;1394;47.044;15.744;2022-09-27T03:02:03;32.53;;;3.00;;
2772;SDS011;1394;47.044;15.744;2022-09-27T03:04:36;33.40;;;4.10;;
2772;SDS011;1394;47.044;15.744;2022-09-27T03:07:08;33.57;;;4.27;;
2772;SDS011;1394;47.044;15.744;2022-09-27T03:09:40;32.87;;;3.13;;
2772;SDS011;1394;47.044;15.744;2022-09-27T03:12:07;33.17;;;3.80;;
2772;SDS011;1394;47.044;15.744;2022-09-27T03:14:35;33.83;;;3.67;;
2772;SDS011;1394;47.044;15.744;2022-09-27T03:17:02;33.10;;;3.50;;
2772;SDS011;1394;47.044;15.744;2022-09-27T03:19:30;33.60;;;4.50;;
2772;SDS011;1394;47.044;15.744;2022-09-27T03:22:00;34.10;;;4.10;;
2772;SDS011;1394;47.044;15.744;2022-09-27T03:24:31;34.07;;;4.03;;
2772;SDS011;1394;47.044;15.744;2022-09-27T03:26:58;34.13;;;4.10;;
2772;SDS011;1394;47.044;15.744;2022-09-27T03:29:26;32.60;;;3.20;;
2772;SDS011;1394;47.044;15.744;2022-09-27T03:31:53;32.77;;;3.30;;
2772;SDS011;1394;47.044;15.744;2022-09-27T03:34:21;33.00;;;4.00;;
2772;SDS011;1394;47.044;15.744;2022-09-27T03:36:48;33.17;;;3.47;;
2772;SDS011;1394;47.044;15.744;2022-09-27T03:39:17;33.70;;;4.00;;
2772;SDS011;1394;47.044;15.744;2022-09-27T03:41:44;34.23;;;4.60;;
2772;SDS011;1394;47.044;15.744;2022-09-27T03:44:12;34.10;;;3.80;;
2772;SDS011;1394;47.044;15.744;2022-09-27T03:46:41;33.33;;;4.20;;
2772;SDS011;1394;47.044;15.744;2022-09-27T03:49:09;33.40;;;4.20;;
2772;SDS011;1394;47.044;15.744;2022-09-27T03:51:36;33.37;;;3.50;;
2772;SDS011;1394;47.044;15.744;2022-09-27T03:54:03;33.03;;;3.73;;
2772;SDS011;1394;47.044;15.744;2022-09-27T03:56:32;34.00;;;3.90;;
2772;SDS011;1394;47.044;15.744;2022-09-27T03:58:59;32.80;;;3.30;;
2772;SDS011;1394;47.044;15.744;2022-09-27T04:01:27;32.77;;;3.40;;
2772;SDS011;1394;47.044;15.744;2022-09-27T04:03:55;32.90;;;3.33;;
2772;SDS011;1394;47.044;15.744;2022-09-27T04:06:22;32.87;;;3.33;;
2772;SDS011;1394;47.044;15.744;2022-09-27T04:08:51;33.60;;;4.30;;
2772;SDS011;1394;47.044;15.744;2022-09-27T04:11:19;32.87;;;3.30;;
2772;SDS011;1394;47.044;15.744;2022-09-27T04:13:49;33.40;;;3.53;;
2772;SDS011;1394;47.044;15.744;2022-09-27T04:16:16;33.20;;;3.50;;
2772;SDS011;1394;47.044;15.744;2022-09-27T04:18:44;32.80;;;3.20;;
2772;SDS011;1394;47.044;15.744;2022-09-27T04:21:11;32.67;;;3.30;;
2772;SDS011;1394;47.044;15.744;2022-09-27T04:23:39;33.10;;;3.47;;
2772;SDS011;1394;47.044;15.744;2022-09-27T04:26:06;32.83;;;3.10;;
2772;SDS011;1394;47.044;15.744;2022-09-27T04:28:33;32.60;;;2.93;;
2772;SDS011;1394;47.044;15.744;2022-09-27T04:31:02;32.57;;;2.97;;
2772;SDS011;1394;47.044;15.744;2022-09-27T04:33:30;32.53;;;3.20;;
2772;SDS011;1394;47.044;15.744;2022-09-27T04:35:57;32.47;;;2.80;;
2772;SDS011;1394;47.044;15.744;2022-09-27T04:38:42;32.60;;;3.40;;
2772;SDS011;1394;47.044;15.744;2022-09-27T04:41:09;32.67;;;3.37;;
2772;SDS011;1394;47.044;15.744;2022-09-27T04:43:38;33.00;;;3.37;;
2772;SDS011;1394;47.044;15.744;2022-09-27T04:46:08;32.87;;;3.40;;
2772;SDS011;1394;47.044;15.744;2022-09-27T04:48:39;32.80;;;3.60;;
2772;SDS011;1394;47.044;15.744;2022-09-27T04:51:06;33.30;;;3.50;;
2772;SDS011;1394;47.044;15.744;2022-09-27T04:53:35;33.30;;;4.07;;
2772;SDS011;1394;47.044;15.744;2022-09-27T04:56:03;33.20;;;3.93;;
2772;SDS011;1394;47.044;15.744;2022-09-27T04:58:31;33.57;;;4.40;;
2772;SDS011;1394;47.044;15.744;2022-09-27T05:01:00;34.20;;;4.93;;
2772;SDS011;1394;47.044;15.744;2022-09-27T05:03:32;32.97;;;3.53;;
2772;SDS011;1394;47.044;15.744;2022-09-27T05:06:00;33.07;;;3.70;;
2772;SDS011;1394;47.044;15.744;2022-09-27T05:08:27;32.77;;;3.60;;
2772;SDS011;1394;47.044;15.744;2022-09-27T05:10:55;33.00;;;3.60;;
2772;SDS011;1394;47.044;15.744;2022-09-27T05:13:22;33.20;;;3.60;;
2772;SDS011;1394;47.044;15.744;2022-09-27T05:15:50;33.27;;;4.07;;
2772;SDS011;1394;47.044;15.744;2022-09-27T05:18:17;32.90;;;3.50;;
2772;SDS011;1394;47.044;15.744;2022-09-27T05:20:46;33.00;;;3.63;;
2772;SDS011;1394;47.044;15.744;2022-09-27T05:23:14;33.13;;;4.10;;
2772;SDS011;1394;47.044;15.744;2022-09-27T05:25:41;32.70;;;3.53;;
2772;SDS011;1394;47.044;15.744;2022-09-27T05:28:08;33.63;;;3.87;;
2772;SDS011;1394;47.044;15.744;2022-09-27T05:30:36;32.97;;;3.63;;
2772;SDS011;1394;47.044;15.744;2022-09-27T05:33:06;32.70;;;3.53;;
2772;SDS011;1394;47.044;15.744;2022-09-27T05:35:33;33.30;;;4.27;;
2772;SDS011;1394;47.044;15.744;2022-09-27T05:38:02;34.10;;;4.50;;
2772;SDS011;1394;47.044;15.744;2022-09-27T05:40:34;33.70;;;4.17;;
2772;SDS011;1394;47.044;15.744;2022-09-27T05:43:01;34.40;;;6.00;;
2772;SDS011;1394;47.044;15.744;2022-09-27T05:45:29;33.30;;;4.33;;
2772;SDS011;1394;47.044;15.744;2022-09-27T05:47:56;32.97;;;3.77;;
2772;SDS011;1394;47.044;15.744;2022-09-27T05:50:25;33.10;;;4.40;;
2772;SDS011;1394;47.044;15.744;2022-09-27T05:52:52;33.17;;;4.00;;
2772;SDS011;1394;47.044;15.744;2022-09-27T05:55:21;34.23;;;5.03;;
2772;SDS011;1394;47.044;15.744;2022-09-27T05:57:55;33.13;;;4.30;;
2772;SDS011;1394;47.044;15.744;2022-09-27T06:00:23;33.10;;;3.83;;
2772;SDS011;1394;47.044;15.744;2022-09-27T06:02:54;33.23;;;3.80;;
2772;SDS011;1394;47.044;15.744;2022-09-27T06:05:23;33.07;;;3.80;;
2772;SDS011;1394;47.044;15.744;2022-09-27T06:07:51;34.40;;;4.20;;
2772;SDS011;1394;47.044;15.744;2022-09-27T06:10:19;32.87;;;3.57;;
2772;SDS011;1394;47.044;15.744;2022-09-27T06:12:48;33.00;;;3.60;;
2772;SDS011;1394;47.044;15.744;2022-09-27T06:15:15;33.40;;;4.00;;
2772;SDS011;1394;47.044;15.744;2022-09-27T06:17:45;33.20;;;3.67;;
2772;SDS011;1394;47.044;15.744;2022-09-27T06:20:13;33.97;;;4.67;;
2772;SDS011;1394;47.044;15.744;2022-09-27T06:22:42;32.97;;;3.33;;
2772;SDS011;1394;47.044;15.744;2022-09-27T06:25:10;32.97;;;3.33;;
2772;SDS011;1394;47.044;15.744;2022-09-27T06:27:37;32.70;;;3.40;;
2772;SDS011;1394;47.044;15.744;2022-09-27T06:30:07;33.60;;;4.07;;
2772;SDS011;1394;47.044;15.744;2022-09-27T06:32:37;33.13;;;3.73;;
2772;SDS011;1394;47.044;15.744;2022-09-27T06:35:08;32.67;;;3.20;;
2772;SDS011;1394;47.044;15.744;2022-09-27T06:37:35;33.40;;;3.60;;
2772;SDS011;1394;47.044;15.744;2022-09-27T06:40:03;33.40;;;3.80;;
2772;SDS011;1394;47.044;15.744;2022-09-27T06:42:33;32.80;;;3.47;;
2772;SDS011;1394;47.044;15.744;2022-09-27T06:45:00;32.90;;;3.70;;
2772;SDS011;1394;47.044;15.744;2022-09-27T06:47:30;32.97;;;3.83;;
2772;SDS011;1394;47.044;15.744;2022-09-27T06:50:04;33.47;;;4.23;;
2772;SDS011;1394;47.044;15.744;2022-09-27T06:52:32;33.37;;;3.80;;
2772;SDS011;1394;47.044;15.744;2022-09-27T06:54:59;33.20;;;3.93;;
2772;SDS011;1394;47.044;15.744;2022-09-27T06:57:27;33.23;;;3.60;;
2772;SDS011;1394;47.044;15.744;2022-09-27T07:00:14;33.23;;;3.80;;
2772;SDS011;1394;47.044;15.744;2022-09-27T07:02:53;33.80;;;4.10;;
2772;SDS011;1394;47.044;15.744;2022-09-27T07:05:25;32.67;;;3.60;;
2772;SDS011;1394;47.044;15.744;2022-09-27T07:07:53;33.00;;;4.03;;
2772;SDS011;1394;47.044;15.744;2022-09-27T07:10:22;33.00;;;3.63;;
2772;SDS011;1394;47.044;15.744;2022-09-27T07:12:50;32.77;;;3.70;;
2772;SDS011;1394;47.044;15.744;2022-09-27T07:15:18;32.73;;;3.70;;
2772;SDS011;1394;47.044;15.744;2022-09-27T07:17:46;33.20;;;4.10;;
2772;SDS011;1394;47.044;15.744;2022-09-27T07:20:15;34.67;;;5.77;;
2772;SDS011;1394;47.044;15.744;2022-09-27T07:22:42;33.50;;;4.90;;
2772;SDS011;1394;47.044;15.744;2022-09-27T07:25:10;33.07;;;3.40;;
2772;SDS011;1394;47.044;15.744;2022-09-27T07:27:38;32.70;;;3.10;;
2772;SDS011;1394;47.044;15.744;2022-09-27T07:30:06;32.33;;;2.70;;
2772;SDS011;1394;47.044;15.744;2022-09-27T07:32:34;32.63;;;3.13;;
2772;SDS011;1394;47.044;15.744;2022-09-27T07:35:02;32.97;;;2.70;;
2772;SDS011;1394;47.044;15.744;2022-09-27T07:37:31;33.27;;;2.70;;
2772;SDS011;1394;47.044;15.744;2022-09-27T07:40:00;32.40;;;2.90;;
2772;SDS011;1394;47.044;15.744;2022-09-27T07:42:33;32.30;;;3.07;;
2772;SDS011;1394;47.044;15.744;2022-09-27T07:45:02;32.47;;;2.80;;
2772;SDS011;1394;47.044;15.744;2022-09-27T07:47:29;32.20;;;2.80;;
2772;SDS011;1394;47.044;15.744;2022-09-27T07:49:56;32.37;;;2.87;;
2772;SDS011;1394;47.044;15.744;2022-09-27T07:52:24;32.53;;;2.47;;
2772;SDS011;1394;47.044;15.744;2022-09-27T07:54:53;32.43;;;3.00;;
2772;SDS011;1394;47.044;15.744;2022-09-27T07:57:20;32.07;;;2.30;;
2772;SDS011;1394;47.044;15.744;2022-09-27T07:59:48;32.00;;;2.20;;
2772;SDS011;1394;47.044;15.744;2022-09-27T08:02:16;32.40;;;2.47;;
2772;SDS011;1394;47.044;15.744;2022-09-27T08:04:43;32.17;;;2.27;;
2772;SDS011;1394;47.044;15.744;2022-09-27T08:07:12;32.23;;;2.60;;
2772;SDS011;1394;47.044;15.744;2022-09-27T08:09:40;32.10;;;2.47;;
2772;SDS011;1394;47.044;15.744;2022-09-27T08:12:09;32.20;;;2.27;;
2772;SDS011;1394;47.044;15.744;2022-09-27T08:14:36;32.00;;;2.10;;
2772;SDS011;1394;47.044;15.744;2022-09-27T08:17:04;31.90;;;1.83;;
2772;SDS011;1394;47.044;15.744;2022-09-27T08:19:31;31.97;;;2.00;;
2772;SDS011;1394;47.044;15.744;2022-09-27T08:21:59;33.10;;;2.20;;
2772;SDS011;1394;47.044;15.744;2022-09-27T08:24:29;32.30;;;2.03;;
2772;SDS011;1394;47.044;15.744;2022-09-27T08:26:56;32.07;;;2.47;;
2772;SDS011;1394;47.044;15.744;2022-09-27T08:29:25;31.70;;;2.00;;
2772;SDS011;1394;47.044;15.744;2022-09-27T08:31:52;31.90;;;2.20;;
2772;SDS011;1394;47.044;15.744;2022-09-27T08:34:20;31.80;;;1.80;;
2772;SDS011;1394;47.044;15.744;2022-09-27T08:36:50;31.83;;;1.87;;
2772;SDS011;1394;47.044;15.744;2022-09-27T08:39:20;35.90;;;7.47;;
2772;SDS011;1394;47.044;15.744;2022-09-27T08:41:49;31.97;;;2.30;;
2772;SDS011;1394;47.044;15.744;2022-09-27T08:44:19;31.80;;;2.10;;
2772;SDS011;1394;47.044;15.744;2022-09-27T08:46:54;32.10;;;2.13;;
2772;SDS011;1394;47.044;15.744;2022-09-27T08:49:26;32.17;;;2.10;;
2772;SDS011;1394;47.044;15.744;2022-09-27T08:51:56;32.10;;;2.00;;
2772;SDS011;1394;47.044;15.744;2022-09-27T08:54:24;32.23;;;2.47;;
2772;SDS011;1394;47.044;15.744;2022-09-27T08:56:54;31.90;;;2.17;;
2772;SDS011;1394;47.044;15.744;2022-09-27T08:59:27;32.03;;;2.20;;
2772;SDS011;1394;47.044;15.744;2022-09-27T09:02:03;31.90;;;2.10;;
2772;SDS011;1394;47.044;15.744;2022-09-27T09:04:32;32.10;;;1.90;;
2772;SDS011;1394;47.044;15.744;2022-09-27T09:07:06;32.00;;;1.90;;
2772;SDS011;1394;47.044;15.744;2022-09-27T09:09:37;31.70;;;1.80;;
2772;SDS011;1394;47.044;15.744;2022-09-27T09:12:16;32.13;;;2.00;;
2772;SDS011;1394;47.044;15.744;2022-09-27T09:15:06;32.00;;;1.97;;
2772;SDS011;1394;47.044;15.744;2022-09-27T09:17:44;32.10;;;1.80;;
2772;SDS011;1394;47.044;15.744;2022-09-27T09:20:15;31.90;;;1.80;;
2772;SDS011;1394;47.044;15.744;2022-09-27T09:22:48;31.60;;;1.60;;
2772;SDS011;1394;47.044;15.744;2022-09-27T09:25:21;31.80;;;1.90;;
2772;SDS011;1394;47.044;15.744;2022-09-27T09:27:52;31.90;;;1.87;;
2772;SDS011;1394;47.044;15.744;2022-09-27T09:30:22;31.73;;;1.63;;
2772;SDS011;1394;47.044;15.744;2022-09-27T09:33:01;31.57;;;1.57;;
2772;SDS011;1394;47.044;15.744;2022-09-27T09:35:35;31.70;;;1.60;;
2772;SDS011;1394;47.044;15.744;2022-09-27T09:38:05;31.80;;;1.70;;
2772;SDS011;1394;47.044;15.744;2022-09-27T09:40:38;31.67;;;1.57;;
2772;SDS011;1394;47.044;15.744;2022-09-27T09:43:08;31.60;;;1.50;;
2772;SDS011;1394;47.044;15.744;2022-09-27T09:45:37;31.70;;;1.60;;
2772;SDS011;1394;47.044;15.744;2022-09-27T09:48:10;31.60;;;1.90;;
2772;SDS011;1394;47.044;15.744;2022-09-27T09:50:41;32.43;;;2.70;;
2772;SDS011;1394;47.044;15.744;2022-09-27T09:53:11;32.10;;;2.23;;
2772;SDS011;1394;47.044;15.744;2022-09-27T09:55:40;33.10;;;2.30;;
2772;SDS011;1394;47.044;15.744;2022-09-27T09:58:13;32.00;;;2.20;;
2772;SDS011;1394;47.044;15.744;2022-09-27T10:00:46;32.10;;;2.57;;
2772;SDS011;1394;47.044;15.744;2022-09-27T10:03:15;32.10;;;2.30;;
2772;SDS011;1394;47.044;15.744;2022-09-27T10:05:43;32.10;;;2.20;;
2772;SDS011;1394;47.044;15.744;2022-09-27T10:08:12;32.20;;;2.27;;
2772;SDS011;1394;47.044;15.744;2022-09-27T10:10:45;32.27;;;2.50;;
2772;SDS011;1394;47.044;15.744;2022-09-27T10:13:14;32.07;;;1.83;;
2772;SDS011;1394;47.044;15.744;2022-09-27T10:15:42;31.97;;;2.00;;
2772;SDS011;1394;47.044;15.744;2022-09-27T10:18:13;31.80;;;1.87;;
2772;SDS011;1394;47.044;15.744;2022-09-27T10:20:44;32.20;;;2.20;;
2772;SDS011;1394;47.044;15.744;2022-09-27T10:23:14;32.43;;;2.00;;
2772;SDS011;1394;47.044;15.744;2022-09-27T10:25:47;31.97;;;1.80;;
2772;SDS011;1394;47.044;15.744;2022-09-27T10:28:26;31.70;;;2.00;;
2772;SDS011;1394;47.044;15.744;2022-09-27T10:30:57;32.00;;;2.00;;
2772;SDS011;1394;47.044;15.744;2022-09-27T10:33:25;32.10;;;2.10;;
2772;SDS011;1394;47.044;15.744;2022-09-27T10:35:56;31.97;;;2.03;;
2772;SDS011;1394;47.044;15.744;2022-09-27T10:38:26;31.90;;;1.63;;
2772;SDS011;1394;47.044;15.744;2022-09-27T10:40:55;31.70;;;1.90;;
2772;SDS011;1394;47.044;15.744;2022-09-27T10:43:25;31.73;;;2.03;;
2772;SDS011;1394;47.044;15.744;2022-09-27T10:46:02;32.07;;;2.13;;
2772;SDS011;1394;47.044;15.744;2022-09-27T10:48:31;32.80;;;3.00;;
2772;SDS011;1394;47.044;15.744;2022-09-27T10:51:01;31.27;;;1.10;;
2772;SDS011;1394;47.044;15.744;2022-09-27T10:53:33;34.30;;;1.30;;
2772;SDS011;1394;47.044;15.744;2022-09-27T10:56:01;31.37;;;1.10;;
2772;SDS011;1394;47.044;15.744;2022-09-27T10:58:30;31.27;;;1.00;;
2772;SDS011;1394;47.044;15.744;2022-09-27T11:00:58;31.40;;;1.00;;
2772;SDS011;1394;47.044;15.744;2022-09-27T11:03:27;31.20;;;1.00;;
2772;SDS011;1394;47.044;15.744;2022-09-27T11:05:58;31.40;;;0.90;;
2772;SDS011;1394;47.044;15.744;2022-09-27T11:08:31;31.30;;;0.80;;
2772;SDS011;1394;47.044;15.744;2022-09-27T11:11:00;31.43;;;0.90;;
2772;SDS011;1394;47.044;15.744;2022-09-27T11:13:28;31.50;;;1.00;;
2772;SDS011;1394;47.044;15.744;2022-09-27T11:18:46;31.30;;;1.00;;
2772;SDS011;1394;47.044;15.744;2022-09-27T11:21:19;31.53;;;1.10;;
2772;SDS011;1394;47.044;15.744;2022-09-27T11:23:59;31.07;;;0.80;;
2772;SDS011;1394;47.044;15.744;2022-09-27T11:26:32;31.10;;;0.80;;
2772;SDS011;1394;47.044;15.744;2022-09-27T11:29:04;31.50;;;0.90;;
2772;SDS011;1394;47.044;15.744;2022-09-27T11:31:39;31.23;;;0.80;;
2772;SDS011;1394;47.044;15.744;2022-09-27T11:34:16;31.83;;;0.90;;
2772;SDS011;1394;47.044;15.744;2022-09-27T11:36:54;34.70;;;3.80;;
2772;SDS011;1394;47.044;15.744;2022-09-27T11:39:27;33.90;;;3.07;;
2772;SDS011;1394;47.044;15.744;2022-09-27T11:42:03;31.27;;;0.83;;
2772;SDS011;1394;47.044;15.744;2022-09-27T11:44:43;31.27;;;0.70;;
2772;SDS011;1394;47.044;15.744;2022-09-27T11:47:17;31.30;;;0.97;;
2772;SDS011;1394;47.044;15.744;2022-09-27T11:50:00;31.47;;;1.10;;
2772;SDS011;1394;47.044;15.744;2022-09-27T11:52:37;31.67;;;1.20;;
2772;SDS011;1394;47.044;15.744;2022-09-27T11:57:55;31.30;;;0.80;;
2772;SDS011;1394;47.044;15.744;2022-09-27T12:00:27;31.10;;;0.80;;
2772;SDS011;1394;47.044;15.744;2022-09-27T12:03:06;31.70;;;0.70;;
2772;SDS011;1394;47.044;15.744;2022-09-27T12:05:41;31.23;;;0.80;;
2772;SDS011;1394;47.044;15.744;2022-09-27T12:08:22;31.23;;;0.80;;
2772;SDS011;1394;47.044;15.744;2022-09-27T12:10:56;31.10;;;0.70;;
2772;SDS011;1394;47.044;15.744;2022-09-27T12:13:28;31.20;;;0.70;;
2772;SDS011;1394;47.044;15.744;2022-09-27T12:15:58;31.20;;;0.90;;
2772;SDS011;1394;47.044;15.744;2022-09-27T12:18:27;31.50;;;0.80;;
2772;SDS011;1394;47.044;15.744;2022-09-27T12:20:56;31.50;;;0.67;;
2772;SDS011;1394;47.044;15.744;2022-09-27T12:23:28;31.87;;;0.80;;
2772;SDS011;1394;47.044;15.744;2022-09-27T12:26:03;31.20;;;0.70;;
2772;SDS011;1394;47.044;15.744;2022-09-27T12:28:33;31.30;;;0.90;;
2772;SDS011;1394;47.044;15.744;2022-09-27T12:31:08;31.40;;;1.10;;
2772;SDS011;1394;47.044;15.744;2022-09-27T12:33:43;31.47;;;1.30;;
2772;SDS011;1394;47.044;15.744;2022-09-27T12:36:15;31.20;;;0.80;;
2772;SDS011;1394;47.044;15.744;2022-09-27T12:38:45;31.10;;;1.00;;
2772;SDS011;1394;47.044;15.744;2022-09-27T12:41:14;31.97;;;1.23;;
2772;SDS011;1394;47.044;15.744;2022-09-27T12:43:45;31.97;;;1.03;;
2772;SDS011;1394;47.044;15.744;2022-09-27T12:46:15;31.10;;;0.77;;
2772;SDS011;1394;47.044;15.744;2022-09-27T12:48:48;31.30;;;0.90;;
2772;SDS011;1394;47.044;15.744;2022-09-27T12:51:19;32.30;;;2.23;;
2772;SDS011;1394;47.044;15.744;2022-09-27T12:53:52;31.87;;;1.60;;
2772;SDS011;1394;47.044;15.744;2022-09-27T12:59:24;32.57;;;2.40;;
2772;SDS011;1394;47.044;15.744;2022-09-27T13:01:58;31.67;;;1.50;;
2772;SDS011;1394;47.044;15.744;2022-09-27T13:04:34;31.50;;;1.00;;
2772;SDS011;1394;47.044;15.744;2022-09-27T13:07:07;33.37;;;3.47;;
2772;SDS011;1394;47.044;15.744;2022-09-27T13:09:41;31.60;;;1.30;;
2772;SDS011;1394;47.044;15.744;2022-09-27T13:12:12;31.80;;;1.50;;
2772;SDS011;1394;47.044;15.744;2022-09-27T13:14:46;31.30;;;0.90;;
2772;SDS011;1394;47.044;15.744;2022-09-27T13:17:31;32.10;;;1.00;;
2772;SDS011;1394;47.044;15.744;2022-09-27T13:19:59;31.80;;;0.80;;
2772;SDS011;1394;47.044;15.744;2022-09-27T13:22:46;31.17;;;0.73;;
2772;SDS011;1394;47.044;15.744;2022-09-27T13:27:55;31.30;;;0.67;;
2772;SDS011;1394;47.044;15.744;2022-09-27T13:36:15;31.10;;;0.70;;
2772;SDS011;1394;47.044;15.744;2022-09-27T13:38:50;31.00;;;0.70;;
2772;SDS011;1394;47.044;15.744;2022-09-27T13:41:25;31.33;;;0.80;;
2772;SDS011;1394;47.044;15.744;2022-09-27T13:44:00;31.30;;;0.90;;
2772;SDS011;1394;47.044;15.744;2022-09-27T13:46:32;32.90;;;3.30;;
2772;SDS011;1394;47.044;15.744;2022-09-27T13:49:01;31.33;;;1.03;;
2772;SDS011;1394;47.044;15.744;2022-09-27T13:51:39;31.30;;;0.80;;
2772;SDS011;1394;47.044;15.744;2022-09-27T13:54:34;31.40;;;0.90;;
2772;SDS011;1394;47.044;15.744;2022-09-27T13:56:58;31.07;;;0.80;;
2772;SDS011;1394;47.044;15.744;2022-09-27T13:59:29;31.20;;;0.80;;
2772;SDS011;1394;47.044;15.744;2022-09-27T14:02:01;31.20;;;0.93;;
2772;SDS011;1394;47.044;15.744;2022-09-27T14:04:40;31.10;;;0.90;;
2772;SDS011;1394;47.044;15.744;2022-09-27T14:07:09;31.07;;;0.80;;
2772;SDS011;1394;47.044;15.744;2022-09-27T14:09:39;31.40;;;1.20;;
2772;SDS011;1394;47.044;15.744;2022-09-27T14:12:09;31.80;;;1.30;;
2772;SDS011;1394;47.044;15.744;2022-09-27T14:14:37;31.23;;;1.10;;
2772;SDS011;1394;47.044;15.744;2022-09-27T14:17:05;31.00;;;0.80;;
2772;SDS011;1394;47.044;15.744;2022-09-27T14:19:33;31.30;;;0.93;;
2772;SDS011;1394;47.044;15.744;2022-09-27T14:22:07;31.17;;;0.80;;
2772;SDS011;1394;47.044;15.744;2022-09-27T14:24:43;31.03;;;0.80;;
2772;SDS011;1394;47.044;15.744;2022-09-27T14:27:13;31.10;;;0.87;;
2772;SDS011;1394;47.044;15.744;2022-09-27T14:29:43;31.23;;;0.90;;
2772;SDS011;1394;47.044;15.744;2022-09-27T14:32:11;31.20;;;1.00;;
2772;SDS011;1394;47.044;15.744;2022-09-27T14:34:40;31.30;;;1.10;;
2772;SDS011;1394;47.044;15.744;2022-09-27T14:39:55;31.20;;;0.90;;
2772;SDS011;1394;47.044;15.744;2022-09-27T14:42:25;31.43;;;1.10;;
2772;SDS011;1394;47.044;15.744;2022-09-27T14:44:53;31.10;;;1.10;;
2772;SDS011;1394;47.044;15.744;2022-09-27T14:47:23;31.20;;;1.10;;
2772;SDS011;1394;47.044;15.744;2022-09-27T14:49:51;31.77;;;0.90;;
2772;SDS011;1394;47.044;15.744;2022-09-27T14:52:19;31.30;;;1.00;;
2772;SDS011;1394;47.044;15.744;2022-09-27T14:54:57;31.13;;;0.90;;
2772;SDS011;1394;47.044;15.744;2022-09-27T14:57:26;31.30;;;1.20;;
2772;SDS011;1394;47.044;15.744;2022-09-27T14:59:56;31.10;;;0.90;;
2772;SDS011;1394;47.044;15.744;2022-09-27T15:02:28;31.20;;;0.90;;
2772;SDS011;1394;47.044;15.744;2022-09-27T15:04:57;31.17;;;1.00;;
2772;SDS011;1394;47.044;15.744;2022-09-27T15:07:24;31.50;;;1.30;;
2772;SDS011;1394;47.044;15.744;2022-09-27T15:09:52;31.37;;;1.20;;
2772;SDS011;1394;47.044;15.744;2022-09-27T15:12:23;32.10;;;1.50;;
2772;SDS011;1394;47.044;15.744;2022-09-27T15:14:53;31.50;;;1.30;;
2772;SDS011;1394;47.044;15.744;2022-09-27T15:17:24;31.77;;;1.30;;
2772;SDS011;1394;47.044;15.744;2022-09-27T15:19:55;31.70;;;1.30;;
2772;SDS011;1394;47.044;15.744;2022-09-27T15:22:28;31.47;;;1.57;;
2772;SDS011;1394;47.044;15.744;2022-09-27T15:25:03;31.57;;;1.43;;
2772;SDS011;1394;47.044;15.744;2022-09-27T15:27:30;33.17;;;3.70;;